Terminal Aerodrome Forecast
Issued by NWS

Home | Current Version | Previous Version | Text Only | Print | Product List | Glossary On
Versions: 1 2 3 4 5 6 7 8 9 10 11 12 13 14 15 16 17 18
000
FTUS43 KMQT 260705 AAA
TAFSAW
TAF AMD
KSAW 260705Z 2607/2706 27005KT P6SM SKC WS005/31035KT
     FM261000 29006KT P6SM SCT045
     FM261300 30003KT P6SM BKN045
     FM261500 34003KT P6SM BKN025
     FM262000 03007KT P6SM BKN030
     FM262100 03006KT P6SM SCT030
     FM270300 00000KT P6SM SCT150=

USA.gov is the U.S. government's official web portal to all federal, state and local government web resources and services.